createdAt,value
2022-11-26T00:00:34.507Z,1007.77
2022-11-26T00:01:34.463Z,1007.77
2022-11-26T00:02:34.554Z,1007.83
2022-11-26T00:03:34.543Z,1007.85
2022-11-26T00:04:34.613Z,1007.88
2022-11-26T00:05:34.426Z,1007.90
2022-11-26T00:06:34.432Z,1007.88
2022-11-26T00:07:34.456Z,1007.92
2022-11-26T00:08:34.383Z,1007.88
2022-11-26T00:09:34.383Z,1007.90
2022-11-26T00:10:34.364Z,1007.90
2022-11-26T00:11:34.351Z,1007.90
2022-11-26T00:12:34.354Z,1007.87
2022-11-26T00:13:34.333Z,1007.88
2022-11-26T00:14:34.329Z,1007.88
2022-11-26T00:15:34.302Z,1007.94
2022-11-26T00:16:34.351Z,1007.93
2022-11-26T00:17:34.341Z,1007.94
2022-11-26T00:18:34.273Z,1007.95
2022-11-26T00:19:34.254Z,1007.95
2022-11-26T00:20:34.259Z,1008.00
2022-11-26T00:21:34.270Z,1008.02
2022-11-26T00:22:34.232Z,1007.98
2022-11-26T00:23:34.241Z,1008.05
2022-11-26T00:24:34.211Z,1008.03
2022-11-26T00:25:34.192Z,1008.06
2022-11-26T00:26:34.182Z,1008.03
2022-11-26T00:27:34.166Z,1008.10
2022-11-26T00:28:34.158Z,1008.11
2022-11-26T00:29:34.162Z,1008.09
2022-11-26T00:30:34.258Z,1008.10
2022-11-26T00:31:34.343Z,1008.11
2022-11-26T00:32:34.112Z,1008.10
2022-11-26T00:33:34.093Z,1008.12
2022-11-26T00:34:34.089Z,1008.13
2022-11-26T00:35:34.092Z,1008.13
2022-11-26T00:36:34.072Z,1008.14
2022-11-26T00:37:34.052Z,1008.15
2022-11-26T00:38:34.052Z,1008.20
2022-11-26T00:39:34.042Z,1008.19
2022-11-26T00:40:34.036Z,1008.25
2022-11-26T00:41:34.035Z,1008.24
2022-11-26T00:42:33.992Z,1008.20
2022-11-26T00:43:33.979Z,1008.25
2022-11-26T00:44:33.982Z,1008.32
2022-11-26T00:45:34.014Z,1008.30
2022-11-26T00:46:34.010Z,1008.34
2022-11-26T00:47:33.932Z,1008.33
2022-11-26T00:48:33.922Z,1008.40
2022-11-26T00:49:33.922Z,1008.38
2022-11-26T00:50:33.911Z,1008.39
2022-11-26T00:51:33.902Z,1008.46
2022-11-26T00:52:33.914Z,1008.46
2022-11-26T00:53:33.877Z,1008.47
2022-11-26T00:54:33.859Z,1008.51
2022-11-26T00:55:33.842Z,1008.49
2022-11-26T00:56:37.748Z,1008.58
2022-11-26T00:57:33.840Z,1008.50
2022-11-26T00:58:33.847Z,1008.53
2022-11-26T00:59:33.801Z,1008.51
2022-11-26T01:00:33.802Z,1008.56
2022-11-26T01:01:33.832Z,1008.56
2022-11-26T01:02:33.809Z,1008.58
2022-11-26T01:03:33.761Z,1008.54
2022-11-26T01:04:33.778Z,1008.57
2022-11-26T01:05:33.869Z,1008.58
2022-11-26T01:06:33.730Z,1008.56
2022-11-26T01:07:33.781Z,1008.58
2022-11-26T01:08:33.696Z,1008.62
2022-11-26T01:09:33.730Z,1008.60
2022-11-26T01:10:33.690Z,1008.57
2022-11-26T01:11:33.661Z,1008.57
2022-11-26T01:12:33.664Z,1008.52
2022-11-26T01:13:33.651Z,1008.54
2022-11-26T01:14:33.631Z,1008.56
2022-11-26T01:15:33.715Z,1008.58
2022-11-26T01:16:34.366Z,1008.61
2022-11-26T01:17:33.589Z,1008.55
2022-11-26T01:18:33.593Z,1008.61
2022-11-26T01:19:33.573Z,1008.60
2022-11-26T01:20:33.588Z,1008.64
2022-11-26T01:21:33.678Z,1008.63
2022-11-26T01:22:33.541Z,1008.64
2022-11-26T01:23:33.526Z,1008.67
2022-11-26T01:24:33.524Z,1008.66
2022-11-26T01:25:33.501Z,1008.63
2022-11-26T01:26:33.496Z,1008.67
2022-11-26T01:27:33.516Z,1008.66
2022-11-26T01:28:33.471Z,1008.69
2022-11-26T01:29:33.524Z,1008.69
2022-11-26T01:30:33.440Z,1008.74
2022-11-26T01:31:33.467Z,1008.72
2022-11-26T01:32:33.420Z,1008.71
2022-11-26T01:33:33.430Z,1008.72
2022-11-26T01:34:33.401Z,1008.69
2022-11-26T01:35:33.393Z,1008.74
2022-11-26T01:36:33.370Z,1008.73
2022-11-26T01:37:33.371Z,1008.76
2022-11-26T01:38:33.370Z,1008.76
2022-11-26T01:39:33.353Z,1008.74
2022-11-26T01:40:33.329Z,1008.77
2022-11-26T01:41:33.328Z,1008.75
2022-11-26T01:42:33.375Z,1008.70
2022-11-26T01:43:33.299Z,1008.74
2022-11-26T01:44:33.322Z,1008.73
2022-11-26T01:45:33.358Z,1008.78
2022-11-26T01:46:33.262Z,1008.78
2022-11-26T01:47:33.242Z,1008.85
2022-11-26T01:48:33.248Z,1008.85
2022-11-26T01:49:33.219Z,1008.85
2022-11-26T01:50:33.272Z,1008.93
2022-11-26T01:51:33.199Z,1008.93
2022-11-26T01:52:33.192Z,1008.98
2022-11-26T01:53:33.178Z,1008.99
2022-11-26T01:54:33.181Z,1009.01
2022-11-26T01:55:33.152Z,1009.05
2022-11-26T01:56:33.180Z,1009.10
2022-11-26T01:57:33.137Z,1009.11
2022-11-26T01:58:36.911Z,1009.08
2022-11-26T01:59:34.128Z,1009.18
2022-11-26T02:00:33.143Z,1009.19
2022-11-26T02:01:33.153Z,1009.11
2022-11-26T02:02:33.143Z,1009.12
2022-11-26T02:03:33.078Z,1009.20
2022-11-26T02:04:33.057Z,1009.16
2022-11-26T02:05:33.040Z,1009.19
2022-11-26T02:06:33.040Z,1009.17
2022-11-26T02:07:33.041Z,1009.20
2022-11-26T02:08:33.110Z,1009.27
2022-11-26T02:09:32.998Z,1009.26
2022-11-26T02:10:32.997Z,1009.29
2022-11-26T02:11:32.967Z,1009.30
2022-11-26T02:12:32.959Z,1009.25
2022-11-26T02:13:32.949Z,1009.27
2022-11-26T02:14:32.980Z,1009.28
2022-11-26T02:15:32.928Z,1009.26
2022-11-26T02:16:32.964Z,1009.30
2022-11-26T02:17:32.916Z,1009.28
2022-11-26T02:18:32.908Z,1009.33
2022-11-26T02:19:32.880Z,1009.37
2022-11-26T02:20:32.889Z,1009.36
2022-11-26T02:21:32.869Z,1009.44
2022-11-26T02:22:32.851Z,1009.45
2022-11-26T02:23:32.839Z,1009.45
2022-11-26T02:24:32.827Z,1009.45
2022-11-26T02:25:32.828Z,1009.44
2022-11-26T02:26:32.835Z,1009.49
2022-11-26T02:27:32.797Z,1009.44
2022-11-26T02:28:32.777Z,1009.49
2022-11-26T02:29:32.769Z,1009.54
2022-11-26T02:30:32.765Z,1009.48
2022-11-26T02:31:32.799Z,1009.48
2022-11-26T02:32:32.796Z,1009.51
2022-11-26T02:33:32.718Z,1009.52
2022-11-26T02:34:37.188Z,1009.52
2022-11-26T02:35:32.708Z,1009.56
2022-11-26T02:36:32.690Z,1009.56
2022-11-26T02:37:32.681Z,1009.59
2022-11-26T02:38:32.740Z,1009.55
2022-11-26T02:39:32.675Z,1009.57
2022-11-26T02:40:32.655Z,1009.58
2022-11-26T02:41:32.643Z,1009.58
2022-11-26T02:42:32.626Z,1009.59
2022-11-26T02:43:32.619Z,1009.59
2022-11-26T02:44:32.634Z,1009.60
2022-11-26T02:45:32.639Z,1009.52
2022-11-26T02:46:32.579Z,1009.54
2022-11-26T02:47:32.568Z,1009.53
2022-11-26T02:48:32.557Z,1009.56
2022-11-26T02:49:32.546Z,1009.63
2022-11-26T02:50:32.559Z,1009.63
2022-11-26T02:51:34.948Z,1009.65
2022-11-26T02:52:32.516Z,1009.73
2022-11-26T02:53:32.500Z,1009.68
2022-11-26T02:54:32.486Z,1009.70
2022-11-26T02:55:32.500Z,1009.71
2022-11-26T02:56:32.510Z,1009.74
2022-11-26T02:57:32.467Z,1009.74
2022-11-26T02:58:32.446Z,1009.77
2022-11-26T02:59:32.438Z,1009.75
2022-11-26T03:00:32.424Z,1009.79
2022-11-26T03:01:32.430Z,1009.81
2022-11-26T03:02:32.424Z,1009.78
2022-11-26T03:03:32.458Z,1009.82
2022-11-26T03:04:32.372Z,1009.76
2022-11-26T03:05:32.365Z,1009.72
2022-11-26T03:06:32.359Z,1009.79
2022-11-26T03:07:32.457Z,1009.78
2022-11-26T03:08:32.356Z,1009.81
2022-11-26T03:09:32.320Z,1009.88
2022-11-26T03:10:32.309Z,1009.87
2022-11-26T03:11:32.341Z,1009.89
2022-11-26T03:12:32.286Z,1009.88
2022-11-26T03:13:32.266Z,1009.83
2022-11-26T03:14:32.278Z,1009.86
2022-11-26T03:15:32.246Z,1009.86
2022-11-26T03:16:32.288Z,1009.89
2022-11-26T03:17:32.234Z,1009.86
2022-11-26T03:18:32.224Z,1009.85
2022-11-26T03:19:32.203Z,1009.89
2022-11-26T03:20:32.214Z,1009.94
2022-11-26T03:21:32.185Z,1009.87
2022-11-26T03:22:32.167Z,1009.88
2022-11-26T03:23:32.169Z,1009.88
2022-11-26T03:24:32.138Z,1009.87
2022-11-26T03:25:32.134Z,1009.90
2022-11-26T03:26:32.148Z,1009.86
2022-11-26T03:27:32.113Z,1009.92
2022-11-26T03:28:32.097Z,1009.90
2022-11-26T03:29:32.098Z,1009.91
2022-11-26T03:30:32.079Z,1009.97
2022-11-26T03:31:32.101Z,1009.96
2022-11-26T03:32:32.099Z,1009.99
2022-11-26T03:33:32.057Z,1010.02
2022-11-26T03:34:32.032Z,1010.04
2022-11-26T03:35:32.025Z,1010.04
2022-11-26T03:36:32.006Z,1010.13
2022-11-26T03:37:32.012Z,1010.08
2022-11-26T03:38:32.005Z,1010.09
2022-11-26T03:39:31.974Z,1010.15
2022-11-26T03:40:31.962Z,1010.16
2022-11-26T03:41:31.955Z,1010.13
2022-11-26T03:42:31.963Z,1010.13
2022-11-26T03:43:31.936Z,1010.12
2022-11-26T03:44:31.952Z,1010.15
2022-11-26T03:45:31.929Z,1010.12
2022-11-26T03:46:31.902Z,1010.12
2022-11-26T03:47:31.880Z,1010.08
2022-11-26T03:48:31.876Z,1010.10
2022-11-26T03:49:31.863Z,1010.14
2022-11-26T03:50:31.873Z,1010.17
2022-11-26T03:51:31.843Z,1010.18
2022-11-26T03:52:31.828Z,1010.11
2022-11-26T03:53:31.813Z,1010.20
2022-11-26T03:54:31.802Z,1010.21
2022-11-26T03:55:31.796Z,1010.19
2022-11-26T03:56:31.802Z,1010.17
2022-11-26T03:57:31.762Z,1010.15
2022-11-26T03:58:31.766Z,1010.18
2022-11-26T03:59:31.741Z,1010.15
2022-11-26T04:00:31.732Z,1010.07
2022-11-26T04:01:31.844Z,1010.15
2022-11-26T04:02:31.754Z,1010.15
2022-11-26T04:03:31.780Z,1010.14
2022-11-26T04:04:31.691Z,1010.12
2022-11-26T04:05:31.682Z,1010.10
2022-11-26T04:06:31.670Z,1010.12
2022-11-26T04:07:31.762Z,1010.11
2022-11-26T04:08:31.663Z,1010.13
2022-11-26T04:09:31.636Z,1010.16
2022-11-26T04:10:31.623Z,1010.22
2022-11-26T04:11:31.635Z,1010.17
2022-11-26T04:12:31.613Z,1010.18
2022-11-26T04:13:31.602Z,1010.14
2022-11-26T04:14:31.602Z,1010.11
2022-11-26T04:15:31.593Z,1010.18
2022-11-26T04:16:31.614Z,1010.20
2022-11-26T04:17:31.551Z,1010.18
2022-11-26T04:18:31.557Z,1010.23
2022-11-26T04:19:31.532Z,1010.21
2022-11-26T04:20:31.539Z,1010.22
2022-11-26T04:21:31.512Z,1010.29
2022-11-26T04:22:31.497Z,1010.30
2022-11-26T04:23:31.489Z,1010.25
2022-11-26T04:24:31.479Z,1010.30
2022-11-26T04:25:31.471Z,1010.33
2022-11-26T04:26:31.474Z,1010.32
2022-11-26T04:27:31.442Z,1010.29
2022-11-26T04:28:31.424Z,1010.31
2022-11-26T04:29:31.428Z,1010.27
2022-11-26T04:30:31.400Z,1010.25
2022-11-26T04:31:31.466Z,1010.25
2022-11-26T04:32:31.409Z,1010.23
2022-11-26T04:33:31.371Z,1010.30
2022-11-26T04:34:31.378Z,1010.23
2022-11-26T04:35:31.350Z,1010.27
2022-11-26T04:36:31.343Z,1010.26
2022-11-26T04:37:31.340Z,1010.28
2022-11-26T04:38:31.339Z,1010.29
2022-11-26T04:39:31.302Z,1010.23
2022-11-26T04:40:31.290Z,1010.30
2022-11-26T04:41:31.285Z,1010.29
2022-11-26T04:42:31.270Z,1010.33
2022-11-26T04:43:31.270Z,1010.40
2022-11-26T04:44:31.308Z,1010.35
2022-11-26T04:45:31.298Z,1010.38
2022-11-26T04:46:31.227Z,1010.45
2022-11-26T04:47:31.220Z,1010.47
2022-11-26T04:48:31.204Z,1010.52
2022-11-26T04:49:31.198Z,1010.45
2022-11-26T04:50:31.213Z,1010.46
2022-11-26T04:51:31.178Z,1010.45
2022-11-26T04:52:31.162Z,1010.49
2022-11-26T04:53:31.150Z,1010.47
2022-11-26T04:54:31.139Z,1010.48
2022-11-26T04:55:31.140Z,1010.55
2022-11-26T04:56:31.711Z,1010.52
2022-11-26T04:57:31.116Z,1010.55
2022-11-26T04:58:31.089Z,1010.55
2022-11-26T04:59:31.096Z,1010.55
2022-11-26T05:00:31.073Z,1010.57
2022-11-26T05:01:31.130Z,1010.70
2022-11-26T05:02:31.111Z,1010.73
2022-11-26T05:03:31.050Z,1010.74
2022-11-26T05:04:31.035Z,1010.76
2022-11-26T05:05:31.028Z,1010.83
2022-11-26T05:06:31.013Z,1010.83
2022-11-26T05:07:31.054Z,1010.84
2022-11-26T05:08:31.016Z,1010.85
2022-11-26T05:09:30.979Z,1010.87
2022-11-26T05:10:30.988Z,1010.90
2022-11-26T05:11:30.952Z,1010.91
2022-11-26T05:12:30.948Z,1010.92
2022-11-26T05:13:30.966Z,1010.91
2022-11-26T05:14:30.917Z,1010.88
2022-11-26T05:15:30.916Z,1010.90
2022-11-26T05:16:30.944Z,1010.95
2022-11-26T05:17:30.892Z,1010.94
2022-11-26T05:18:30.879Z,1010.96
2022-11-26T05:19:30.889Z,1010.95
2022-11-26T05:20:30.861Z,1011.00
2022-11-26T05:21:30.851Z,1010.94
2022-11-26T05:22:30.825Z,1010.96
2022-11-26T05:23:30.826Z,1010.99
2022-11-26T05:24:30.845Z,1011.01
2022-11-26T05:25:30.806Z,1011.02
2022-11-26T05:26:30.775Z,1011.03
2022-11-26T05:27:30.778Z,1011.06
2022-11-26T05:28:30.758Z,1010.99
2022-11-26T05:29:30.755Z,1011.05
2022-11-26T05:30:30.755Z,1011.05
2022-11-26T05:31:30.778Z,1011.01
2022-11-26T05:32:30.717Z,1011.03
2022-11-26T05:33:30.703Z,1010.98
2022-11-26T05:34:31.417Z,1011.06
2022-11-26T05:35:30.718Z,1011.05
2022-11-26T05:36:30.665Z,1011.02
2022-11-26T05:37:32.326Z,1011.09
2022-11-26T05:38:30.647Z,1011.13
2022-11-26T05:39:30.684Z,1011.09
2022-11-26T05:40:30.634Z,1011.14
2022-11-26T05:41:30.634Z,1011.09
2022-11-26T05:42:30.607Z,1011.06
2022-11-26T05:43:30.596Z,1011.13
2022-11-26T05:44:30.585Z,1011.09
2022-11-26T05:45:30.627Z,1011.13
2022-11-26T05:46:30.583Z,1011.10
2022-11-26T05:47:30.554Z,1011.09
2022-11-26T05:48:30.535Z,1011.09
2022-11-26T05:49:30.533Z,1011.12
2022-11-26T05:50:30.517Z,1011.13
2022-11-26T05:51:30.506Z,1011.17
2022-11-26T05:52:30.514Z,1011.18
2022-11-26T05:53:30.492Z,1011.20
2022-11-26T05:54:30.479Z,1011.22
2022-11-26T05:55:30.465Z,1011.18
2022-11-26T05:56:30.524Z,1011.21
2022-11-26T05:57:30.457Z,1011.16
2022-11-26T05:58:30.422Z,1011.17
2022-11-26T05:59:30.414Z,1011.12
2022-11-26T06:00:30.410Z,1011.18
2022-11-26T06:01:30.394Z,1011.21
2022-11-26T06:02:30.545Z,1011.21
2022-11-26T06:03:30.536Z,1011.22
2022-11-26T06:04:30.364Z,1011.26
2022-11-26T06:05:30.354Z,1011.26
2022-11-26T06:06:30.331Z,1011.29
2022-11-26T06:07:30.368Z,1011.31
2022-11-26T06:08:30.331Z,1011.36
2022-11-26T06:09:30.312Z,1011.39
2022-11-26T06:10:30.301Z,1011.40
2022-11-26T06:11:30.282Z,1011.46
2022-11-26T06:12:30.271Z,1011.42
2022-11-26T06:13:30.323Z,1011.52
2022-11-26T06:14:30.261Z,1011.47
2022-11-26T06:15:30.242Z,1011.44
2022-11-26T06:16:30.311Z,1011.48
2022-11-26T06:17:30.215Z,1011.48
2022-11-26T06:18:30.241Z,1011.49
2022-11-26T06:19:30.275Z,1011.51
2022-11-26T06:20:30.174Z,1011.48
2022-11-26T06:21:30.184Z,1011.48
2022-11-26T06:22:30.181Z,1011.52
2022-11-26T06:23:30.140Z,1011.53
2022-11-26T06:24:30.233Z,1011.54
2022-11-26T06:25:30.141Z,1011.51
2022-11-26T06:26:30.120Z,1011.52
2022-11-26T06:27:30.100Z,1011.55
2022-11-26T06:28:30.094Z,1011.59
2022-11-26T06:29:30.080Z,1011.62
2022-11-26T06:30:30.091Z,1011.57
2022-11-26T06:31:30.100Z,1011.59
2022-11-26T06:32:30.061Z,1011.60
2022-11-26T06:33:30.030Z,1011.64
2022-11-26T06:34:30.014Z,1011.57
2022-11-26T06:35:30.025Z,1011.65
2022-11-26T06:36:30.039Z,1011.72
2022-11-26T06:37:29.989Z,1011.68
2022-11-26T06:38:29.990Z,1011.73
2022-11-26T06:39:29.970Z,1011.76
2022-11-26T06:40:29.949Z,1011.83
2022-11-26T06:41:29.962Z,1011.78
2022-11-26T06:42:29.933Z,1011.89
2022-11-26T06:43:29.921Z,1011.90
2022-11-26T06:44:29.917Z,1011.91
2022-11-26T06:45:29.924Z,1011.93
2022-11-26T06:46:29.899Z,1011.96
2022-11-26T06:47:29.899Z,1012.03
2022-11-26T06:48:29.898Z,1012.05
2022-11-26T06:49:29.858Z,1012.12
2022-11-26T06:50:29.847Z,1012.11
2022-11-26T06:51:29.833Z,1012.15
2022-11-26T06:52:29.838Z,1012.09
2022-11-26T06:53:29.830Z,1012.15
2022-11-26T06:54:29.901Z,1012.19
2022-11-26T06:55:29.793Z,1012.20
2022-11-26T06:56:29.778Z,1012.23
2022-11-26T06:57:29.768Z,1012.27
2022-11-26T06:58:29.780Z,1012.24
2022-11-26T06:59:29.738Z,1012.28
2022-11-26T07:00:29.775Z,1012.30
2022-11-26T07:01:29.772Z,1012.26
2022-11-26T07:02:29.800Z,1012.22
2022-11-26T07:03:33.422Z,1012.27
2022-11-26T07:04:29.686Z,1012.26
2022-11-26T07:05:29.688Z,1012.28
2022-11-26T07:06:29.676Z,1012.27
2022-11-26T07:07:29.720Z,1012.20
2022-11-26T07:08:29.646Z,1012.34
2022-11-26T07:09:29.655Z,1012.32
2022-11-26T07:10:29.643Z,1012.39
2022-11-26T07:11:29.628Z,1012.34
2022-11-26T07:12:29.604Z,1012.40
2022-11-26T07:13:29.585Z,1012.35
2022-11-26T07:14:29.574Z,1012.35
2022-11-26T07:15:29.583Z,1012.39
2022-11-26T07:16:29.577Z,1012.39
2022-11-26T07:17:29.548Z,1012.43
2022-11-26T07:18:29.527Z,1012.49
2022-11-26T07:19:29.517Z,1012.46
2022-11-26T07:20:29.561Z,1012.46
2022-11-26T07:21:29.518Z,1012.51
2022-11-26T07:22:29.485Z,1012.53
2022-11-26T07:23:29.473Z,1012.54
2022-11-26T07:24:29.465Z,1012.60
2022-11-26T07:25:29.452Z,1012.57
2022-11-26T07:26:29.462Z,1012.59
2022-11-26T07:27:29.423Z,1012.60
2022-11-26T07:28:29.419Z,1012.62
2022-11-26T07:29:29.416Z,1012.64
2022-11-26T07:30:29.473Z,1012.63
2022-11-26T07:31:29.434Z,1012.66
2022-11-26T07:32:29.394Z,1012.65
2022-11-26T07:33:29.367Z,1012.70
2022-11-26T07:34:29.363Z,1012.73
2022-11-26T07:35:29.344Z,1012.73
2022-11-26T07:36:29.345Z,1012.76
2022-11-26T07:37:29.314Z,1012.76
2022-11-26T07:38:29.324Z,1012.70
2022-11-26T07:39:29.297Z,1012.69
2022-11-26T07:40:29.292Z,1012.76
2022-11-26T07:41:29.278Z,1012.79
2022-11-26T07:42:29.264Z,1012.80
2022-11-26T07:43:29.274Z,1012.75
2022-11-26T07:44:29.235Z,1012.80
2022-11-26T07:45:29.251Z,1012.79
2022-11-26T07:46:29.289Z,1012.74
2022-11-26T07:47:29.211Z,1012.82
2022-11-26T07:48:29.194Z,1012.81
2022-11-26T07:49:29.204Z,1012.79
2022-11-26T07:50:29.176Z,1012.81
2022-11-26T07:51:29.164Z,1012.80
2022-11-26T07:52:29.155Z,1012.79
2022-11-26T07:53:29.147Z,1012.84
2022-11-26T07:54:29.139Z,1012.80
2022-11-26T07:55:29.133Z,1012.84
2022-11-26T07:56:29.115Z,1012.84
2022-11-26T07:57:29.106Z,1012.87
2022-11-26T07:58:29.097Z,1012.84
2022-11-26T07:59:29.084Z,1012.87
2022-11-26T08:00:29.070Z,1012.84
2022-11-26T08:01:29.106Z,1012.80
2022-11-26T08:02:29.081Z,1012.80
2022-11-26T08:03:29.025Z,1012.82
2022-11-26T08:04:29.019Z,1012.86
2022-11-26T08:05:29.021Z,1012.89
2022-11-26T08:06:29.011Z,1012.87
2022-11-26T08:07:29.426Z,1012.90
2022-11-26T08:08:28.982Z,1012.90
2022-11-26T08:09:28.961Z,1012.99
2022-11-26T08:10:28.990Z,1012.95
2022-11-26T08:11:28.956Z,1012.88
2022-11-26T08:12:28.950Z,1012.91
2022-11-26T08:13:28.935Z,1012.89
2022-11-26T08:14:28.909Z,1012.92
2022-11-26T08:15:28.891Z,1012.90
2022-11-26T08:16:29.448Z,1012.89
2022-11-26T08:17:29.000Z,1012.85
2022-11-26T08:18:28.950Z,1012.81
2022-11-26T08:19:28.859Z,1012.82
2022-11-26T08:20:29.368Z,1012.83
2022-11-26T08:21:28.847Z,1012.88
2022-11-26T08:22:28.817Z,1012.86
2022-11-26T08:23:28.811Z,1012.89
2022-11-26T08:24:28.860Z,1012.95
2022-11-26T08:25:28.790Z,1012.96
2022-11-26T08:26:34.657Z,1012.92
2022-11-26T08:27:29.769Z,1012.95
2022-11-26T08:28:28.763Z,1012.95
2022-11-26T08:29:28.750Z,1012.97
2022-11-26T08:30:28.786Z,1013.01
2022-11-26T08:31:28.857Z,1012.97
2022-11-26T08:32:28.710Z,1012.98
2022-11-26T08:33:28.715Z,1013.03
2022-11-26T08:34:28.710Z,1013.01
2022-11-26T08:35:51.283Z,1012.97
2022-11-26T08:36:29.702Z,1012.97
2022-11-26T08:37:28.662Z,1013.03
2022-11-26T08:38:28.652Z,1013.03
2022-11-26T08:39:28.641Z,1013.08
2022-11-26T08:40:28.631Z,1013.05
2022-11-26T08:41:28.628Z,1013.06
2022-11-26T08:42:28.601Z,1013.11
2022-11-26T08:43:51.389Z,1013.04
2022-11-26T08:44:29.579Z,1013.10
2022-11-26T08:45:28.578Z,1013.10
2022-11-26T08:46:28.637Z,1013.11
2022-11-26T08:47:28.588Z,1013.08
2022-11-26T08:48:31.782Z,1013.10
2022-11-26T08:49:28.527Z,1013.06
2022-11-26T08:50:28.538Z,1013.08
2022-11-26T08:51:28.522Z,1013.07
2022-11-26T08:52:28.518Z,1013.05
2022-11-26T08:53:28.738Z,1013.08
2022-11-26T08:54:28.574Z,1013.06
2022-11-26T08:55:53.356Z,1013.05
2022-11-26T08:56:29.689Z,1013.05
2022-11-26T08:57:28.437Z,1013.09
2022-11-26T08:58:28.500Z,1013.10
2022-11-26T08:59:28.417Z,1013.06
2022-11-26T09:00:28.407Z,1013.07
2022-11-26T09:01:28.439Z,1013.10
2022-11-26T09:02:28.394Z,1013.08
2022-11-26T09:03:28.405Z,1013.03
2022-11-26T09:04:28.386Z,1013.05
2022-11-26T09:05:28.356Z,1013.03
2022-11-26T09:06:28.345Z,1013.04
2022-11-26T09:07:28.386Z,1013.04
2022-11-26T09:08:28.336Z,1013.07
2022-11-26T09:09:28.307Z,1013.09
2022-11-26T09:10:28.321Z,1013.13
2022-11-26T09:11:28.284Z,1013.14
2022-11-26T09:12:28.285Z,1013.15
2022-11-26T09:13:28.268Z,1013.15
2022-11-26T09:14:28.343Z,1013.22
2022-11-26T09:15:28.272Z,1013.32
2022-11-26T09:16:28.272Z,1013.29
2022-11-26T09:17:28.216Z,1013.36
2022-11-26T09:18:28.215Z,1013.37
2022-11-26T09:19:28.206Z,1013.38
2022-11-26T09:20:28.189Z,1013.43
2022-11-26T09:21:28.185Z,1013.42
2022-11-26T09:22:28.166Z,1013.50
2022-11-26T09:23:28.157Z,1013.52
2022-11-26T09:24:28.289Z,1013.45
2022-11-26T09:25:28.135Z,1013.47
2022-11-26T09:26:28.143Z,1013.52
2022-11-26T09:27:28.106Z,1013.46
2022-11-26T09:28:28.111Z,1013.48
2022-11-26T09:29:28.095Z,1013.48
2022-11-26T09:30:28.076Z,1013.49
2022-11-26T09:31:28.205Z,1013.50
2022-11-26T09:32:32.667Z,1013.54
2022-11-26T09:33:29.045Z,1013.49
2022-11-26T09:34:28.048Z,1013.49
2022-11-26T09:35:28.024Z,1013.58
2022-11-26T09:36:28.031Z,1013.56
2022-11-26T09:37:28.284Z,1013.52
2022-11-26T09:38:28.017Z,1013.53
2022-11-26T09:39:27.984Z,1013.59
2022-11-26T09:40:27.963Z,1013.53
2022-11-26T09:41:27.964Z,1013.54
2022-11-26T09:42:27.945Z,1013.55
2022-11-26T09:43:27.953Z,1013.56
2022-11-26T09:44:27.924Z,1013.55
2022-11-26T09:45:27.963Z,1013.58
2022-11-26T09:46:33.621Z,1013.51
2022-11-26T09:47:28.891Z,1013.55
2022-11-26T09:48:27.928Z,1013.58
2022-11-26T09:49:27.884Z,1013.51
2022-11-26T09:50:27.857Z,1013.48
2022-11-26T09:51:27.834Z,1013.46
2022-11-26T09:52:27.833Z,1013.51
2022-11-26T09:53:27.832Z,1013.45
2022-11-26T09:54:27.804Z,1013.45
2022-11-26T09:55:27.825Z,1013.46
2022-11-26T09:56:28.004Z,1013.40
2022-11-26T09:57:28.104Z,1013.41
2022-11-26T09:58:28.538Z,1013.44
2022-11-26T09:59:28.451Z,1013.46
2022-11-26T10:00:28.643Z,1013.39
2022-11-26T10:01:27.759Z,1013.46
2022-11-26T10:02:27.817Z,1013.45
2022-11-26T10:03:27.764Z,1013.42
2022-11-26T10:04:27.692Z,1013.38
2022-11-26T10:05:27.720Z,1013.40
2022-11-26T10:06:27.773Z,1013.43
2022-11-26T10:07:27.710Z,1013.43
2022-11-26T10:08:27.643Z,1013.40
2022-11-26T10:09:27.634Z,1013.38
2022-11-26T10:10:27.803Z,1013.38
2022-11-26T10:11:28.002Z,1013.38
2022-11-26T10:12:27.654Z,1013.34
2022-11-26T10:13:27.585Z,1013.30
2022-11-26T10:14:27.823Z,1013.30
2022-11-26T10:15:29.573Z,1013.32
2022-11-26T10:16:27.610Z,1013.39
2022-11-26T10:17:27.543Z,1013.37
2022-11-26T10:18:27.575Z,1013.37
2022-11-26T10:19:27.666Z,1013.37
2022-11-26T10:20:27.523Z,1013.36
2022-11-26T10:21:57.049Z,1013.40
2022-11-26T10:22:28.484Z,1013.41
2022-11-26T10:23:27.490Z,1013.35
2022-11-26T10:24:27.525Z,1013.41
2022-11-26T10:25:27.592Z,1013.41
2022-11-26T10:26:27.453Z,1013.37
2022-11-26T10:27:27.434Z,1013.39
2022-11-26T10:28:27.722Z,1013.35
2022-11-26T10:29:27.422Z,1013.38
2022-11-26T10:30:27.426Z,1013.38
2022-11-26T10:31:27.452Z,1013.34
2022-11-26T10:32:27.384Z,1013.38
2022-11-26T10:33:28.133Z,1013.35
2022-11-26T10:34:29.309Z,1013.32
2022-11-26T10:35:27.572Z,1013.30
2022-11-26T10:36:27.374Z,1013.27
2022-11-26T10:37:27.332Z,1013.31
2022-11-26T10:38:27.309Z,1013.29
2022-11-26T10:39:27.302Z,1013.29
2022-11-26T10:40:27.286Z,1013.35
2022-11-26T10:41:27.401Z,1013.32
2022-11-26T10:42:27.275Z,1013.28
2022-11-26T10:43:27.274Z,1013.33
2022-11-26T10:44:27.329Z,1013.36
2022-11-26T10:45:27.331Z,1013.31
2022-11-26T10:46:27.362Z,1013.37
2022-11-26T10:47:27.439Z,1013.39
2022-11-26T10:48:27.198Z,1013.35
2022-11-26T10:49:27.467Z,1013.35
2022-11-26T10:50:46.567Z,1013.38
2022-11-26T10:51:28.505Z,1013.34
2022-11-26T10:52:27.289Z,1013.30
2022-11-26T10:53:27.281Z,1013.31
2022-11-26T10:54:27.141Z,1013.31
2022-11-26T10:55:27.133Z,1013.30
2022-11-26T10:56:27.208Z,1013.23
2022-11-26T10:57:27.101Z,1013.20
2022-11-26T10:58:27.101Z,1013.19
2022-11-26T10:59:27.233Z,1013.23
2022-11-26T11:00:27.107Z,1013.16
2022-11-26T11:01:27.089Z,1013.21
2022-11-26T11:02:27.155Z,1013.21
2022-11-26T11:03:44.900Z,1013.18
2022-11-26T11:04:28.024Z,1013.21
2022-11-26T11:05:27.278Z,1013.22
2022-11-26T11:06:27.024Z,1013.22
2022-11-26T11:07:27.357Z,1013.23
2022-11-26T11:08:26.980Z,1013.30
2022-11-26T11:09:27.093Z,1013.27
2022-11-26T11:10:26.962Z,1013.30
2022-11-26T11:11:26.940Z,1013.30
2022-11-26T11:12:26.934Z,1013.25
2022-11-26T11:13:26.918Z,1013.30
2022-11-26T11:14:26.913Z,1013.25
2022-11-26T11:15:27.042Z,1013.32
2022-11-26T11:16:26.975Z,1013.36
2022-11-26T11:17:26.877Z,1013.27
2022-11-26T11:18:26.861Z,1013.30
2022-11-26T11:19:27.260Z,1013.25
2022-11-26T11:20:27.381Z,1013.27
2022-11-26T11:21:26.851Z,1013.29
2022-11-26T11:22:26.819Z,1013.26
2022-11-26T11:23:45.700Z,1013.32
2022-11-26T11:24:27.799Z,1013.27
2022-11-26T11:25:27.213Z,1013.27
2022-11-26T11:26:27.013Z,1013.31
2022-11-26T11:27:27.323Z,1013.30
2022-11-26T11:28:26.751Z,1013.25
2022-11-26T11:29:26.740Z,1013.28
2022-11-26T11:30:26.729Z,1013.26
2022-11-26T11:31:26.814Z,1013.23
2022-11-26T11:32:26.711Z,1013.25
2022-11-26T11:33:26.722Z,1013.23
2022-11-26T11:34:26.694Z,1013.24
2022-11-26T11:35:26.679Z,1013.27
2022-11-26T11:36:26.670Z,1013.23
2022-11-26T11:37:26.659Z,1013.27
2022-11-26T11:38:26.642Z,1013.21
2022-11-26T11:39:26.662Z,1013.20
2022-11-26T11:40:26.648Z,1013.26
2022-11-26T11:41:26.621Z,1013.28
2022-11-26T11:42:26.589Z,1013.25
2022-11-26T11:43:26.594Z,1013.26
2022-11-26T11:44:26.590Z,1013.30
2022-11-26T11:45:26.648Z,1013.23
2022-11-26T11:46:26.680Z,1013.19
2022-11-26T11:47:26.650Z,1013.20
2022-11-26T11:48:26.529Z,1013.18
2022-11-26T11:49:26.524Z,1013.19
2022-11-26T11:50:26.508Z,1013.13
2022-11-26T11:51:26.512Z,1013.11
2022-11-26T11:52:26.487Z,1013.15
2022-11-26T11:53:26.469Z,1013.15
2022-11-26T11:54:26.460Z,1013.13
2022-11-26T11:55:26.459Z,1013.12
2022-11-26T11:56:26.499Z,1013.19
2022-11-26T11:57:26.428Z,1013.10
2022-11-26T11:58:26.411Z,1013.11
2022-11-26T11:59:26.409Z,1013.10
2022-11-26T12:00:26.396Z,1013.11
2022-11-26T12:01:26.390Z,1013.07
2022-11-26T12:02:26.411Z,1013.07
2022-11-26T12:03:26.368Z,1013.07
2022-11-26T12:04:26.423Z,1013.06
2022-11-26T12:05:26.632Z,1013.06